Terminal Aerodrome Forecast
Issued by NWS Twin Cities, MN

Home | Current Version | Previous Version | Graphics & Text | Print | Product List | Glossary On
Versions: 1 2 3 4 5 6 7 8 9 10 11 12 13 14 15 16
000
FTUS43 KMPX 221700
TAFEAU
TAF
KEAU 221737Z 2218/2318 13009KT 4SM BR OVC010
     FM222200 11011KT 3SM -RASN BR OVC008
     FM230100 09009KT 2SM -SN BR OVC007
     FM230800 07011KT 1 1/2SM -SN BR OVC006
     FM231200 05012KT 1/2SM SN VV004=

USA.gov is the U.S. government's official web portal to all federal, state and local government web resources and services.